Time;durP1;ratioP1;P1;durP2;ratioP2;P2;SDS_P1;SDS_P2;PMS_P1;PMS_P2;Temp;Humidity;BMP_temperature;BMP_pressure;BME280_temperature;BME280_humidity;BME280_pressure;Samples;Min_cycle;Max_cycle;Signal;HPM_P1;HPM_P2
2023/04/24 00:01:43;;;;;;;23.42;4.82;;;13.40;90.90;;;;;;4953853;29;20539;-77
2023/04/24 00:04:13;;;;;;;10.20;5.38;;;13.40;91.10;;;;;;4948351;29;20043;-77
2023/04/24 00:06:43;;;;;;;17.25;5.63;;;13.50;91.20;;;;;;4956074;29;20101;-77
2023/04/24 00:09:11;;;;;;;18.27;5.20;;;13.40;91.40;;;;;;4918911;29;20058;-76
2023/04/24 00:11:39;;;;;;;15.23;4.82;;;13.40;91.70;;;;;;4939080;29;20059;-76
2023/04/24 00:14:06;;;;;;;14.45;5.05;;;13.40;92.00;;;;;;4938744;29;20508;-76
2023/04/24 00:16:34;;;;;;;20.42;5.70;;;13.40;92.30;;;;;;4938106;29;20147;-76
2023/04/24 00:19:02;;;;;;;13.25;5.43;;;13.40;92.40;;;;;;4937821;29;21446;-76
2023/04/24 00:21:29;;;;;;;14.10;5.10;;;13.40;92.70;;;;;;4955379;29;20061;-76
2023/04/24 00:23:58;;;;;;;12.77;4.72;;;13.40;92.80;;;;;;4935753;29;20051;-77
2023/04/24 00:26:26;;;;;;;11.32;5.45;;;13.40;93.20;;;;;;4916569;29;20047;-75
2023/04/24 00:28:53;;;;;;;6.90;5.05;;;13.30;93.60;;;;;;4937537;29;20130;-76
2023/04/24 00:31:21;;;;;;;9.95;5.15;;;13.30;93.70;;;;;;4937669;29;20051;-78
2023/04/24 00:33:48;;;;;;;12.65;5.28;;;13.30;93.90;;;;;;4949425;29;20064;-79
2023/04/24 00:36:16;;;;;;;8.57;4.63;;;13.30;94.20;;;;;;4940903;29;20060;-78
2023/04/24 00:38:43;;;;;;;9.00;4.95;;;13.30;94.30;;;;;;4915800;29;20043;-78
2023/04/24 00:41:12;;;;;;;9.00;4.40;;;13.30;94.60;;;;;;4954654;28;20539;-78
2023/04/24 00:43:40;;;;;;;7.68;5.25;;;13.30;94.90;;;;;;4953344;29;20105;-78
2023/04/24 00:46:08;;;;;;;8.25;4.32;;;13.30;94.90;;;;;;4916161;29;20217;-78
2023/04/24 00:48:35;;;;;;;10.80;5.07;;;13.30;95.30;;;;;;4936782;29;20102;-78
2023/04/24 00:51:03;;;;;;;12.02;5.15;;;13.30;95.40;;;;;;4927513;29;20055;-78
2023/04/24 00:53:31;;;;;;;15.13;5.00;;;13.30;95.90;;;;;;4936170;29;20130;-79
2023/04/24 00:55:59;;;;;;;10.95;5.03;;;13.30;95.90;;;;;;4936171;29;20059;-79
2023/04/24 00:58:28;;;;;;;10.27;4.95;;;13.20;96.10;;;;;;4937298;29;20468;-79
2023/04/24 01:00:57;;;;;;;12.27;4.90;;;13.20;96.40;;;;;;4953537;28;20191;-79
2023/04/24 01:03:31;;;;;;;8.70;4.50;;;13.10;96.70;;;;;;4935033;29;20051;-77
2023/04/24 01:05:59;;;;;;;12.77;5.32;;;13.10;97.20;;;;;;4934071;29;20061;-79
2023/04/24 01:08:29;;;;;;;10.10;4.50;;;13.10;97.60;;;;;;4953031;29;20465;-78
2023/04/24 01:10:59;;;;;;;11.60;4.63;;;13.10;97.90;;;;;;4918585;29;21224;-77
2023/04/24 01:13:28;;;;;;;10.27;4.43;;;13.10;97.90;;;;;;4933046;29;20134;-78
2023/04/24 01:15:55;;;;;;;9.48;4.63;;;13.10;98.20;;;;;;4923641;29;20420;-79
2023/04/24 01:18:23;;;;;;;9.20;4.82;;;13.20;98.30;;;;;;4935879;29;20130;-79
2023/04/24 01:20:55;;;;;;;13.98;4.75;;;13.20;98.40;;;;;;4921336;28;20142;-79
2023/04/24 01:23:24;;;;;;;8.48;4.88;;;13.10;98.60;;;;;;4953279;29;20043;-80
2023/04/24 01:25:53;;;;;;;10.43;4.85;;;13.20;98.90;;;;;;4953994;28;20055;-79
2023/04/24 01:28:21;;;;;;;11.63;4.60;;;13.20;99.10;;;;;;4954046;29;20058;-79
2023/04/24 01:30:48;;;;;;;14.57;5.13;;;13.20;99.10;;;;;;4936024;29;20520;-79
2023/04/24 01:33:16;;;;;;;10.18;4.38;;;13.20;99.10;;;;;;4953395;29;20055;-80
2023/04/24 01:35:44;;;;;;;9.07;4.40;;;13.10;99.40;;;;;;4936110;29;20055;-80
2023/04/24 01:38:11;;;;;;;11.10;5.03;;;13.10;99.90;;;;;;4952432;29;20065;-80
2023/04/24 01:40:40;;;;;;;13.20;4.82;;;13.10;99.90;;;;;;4953982;29;20420;-78
2023/04/24 01:43:08;;;;;;;14.05;5.38;;;13.20;99.90;;;;;;4937471;29;20063;-78
2023/04/24 01:45:36;;;;;;;8.52;4.38;;;13.20;99.90;;;;;;4936426;29;20114;-78
2023/04/24 01:48:05;;;;;;;10.20;4.53;;;13.20;99.90;;;;;;4940594;28;20066;-78
2023/04/24 01:50:33;;;;;;;14.77;4.43;;;13.20;99.90;;;;;;4935469;29;20055;-78
2023/04/24 01:53:00;;;;;;;12.45;4.43;;;13.30;99.90;;;;;;4933865;29;20043;-79
2023/04/24 01:55:28;;;;;;;11.75;4.22;;;13.30;99.90;;;;;;4918267;29;20504;-79
2023/04/24 01:57:58;;;;;;;9.65;3.95;;;13.30;99.90;;;;;;4917533;29;20049;-79
2023/04/24 02:00:25;;;;;;;13.40;4.75;;;13.30;99.90;;;;;;4941401;29;20051;-78
2023/04/24 02:02:54;;;;;;;10.88;4.50;;;13.30;99.90;;;;;;4951016;29;20046;-78
2023/04/24 02:05:23;;;;;;;17.10;3.97;;;13.40;99.90;;;;;;4949890;29;20083;-78
2023/04/24 02:07:50;;;;;;;9.48;4.55;;;13.40;99.90;;;;;;4929842;29;20504;-79
2023/04/24 02:10:18;;;;;;;12.15;4.07;;;13.50;99.90;;;;;;4928551;29;20051;-78
2023/04/24 02:12:47;;;;;;;12.45;4.70;;;13.50;99.90;;;;;;4924248;29;20046;-79
2023/04/24 02:15:19;;;;;;;10.02;4.25;;;13.60;99.90;;;;;;4935896;29;20059;-78
2023/04/24 02:17:47;;;;;;;9.77;3.95;;;13.50;99.90;;;;;;4941922;29;20576;-78
2023/04/24 02:20:15;;;;;;;9.85;4.20;;;13.50;99.90;;;;;;4919491;29;20059;-78
2023/04/24 02:22:42;;;;;;;14.02;4.05;;;13.50;99.90;;;;;;4918386;29;20091;-77
2023/04/24 02:25:10;;;;;;;8.23;4.63;;;13.50;99.90;;;;;;4950175;29;20051;-77
2023/04/24 02:27:37;;;;;;;26.50;5.50;;;13.40;99.90;;;;;;4936644;29;20381;-79
2023/04/24 02:30:08;;;;;;;15.20;3.90;;;13.40;99.90;;;;;;4936904;29;20542;-79
2023/04/24 02:32:38;;;;;;;6.97;3.97;;;13.30;99.90;;;;;;4919715;29;20055;-79
2023/04/24 02:35:07;;;;;;;18.95;4.18;;;13.30;99.90;;;;;;4930137;29;20421;-78
2023/04/24 02:37:34;;;;;;;19.05;4.28;;;13.30;99.90;;;;;;4935574;29;20542;-77
2023/04/24 02:40:02;;;;;;;11.13;4.60;;;13.20;99.90;;;;;;4953014;28;20102;-79
2023/04/24 02:42:32;;;;;;;11.25;3.85;;;13.20;99.90;;;;;;4933330;29;20735;-78
2023/04/24 02:45:00;;;;;;;10.30;4.30;;;13.20;99.90;;;;;;4946524;29;20063;-78
2023/04/24 02:47:28;;;;;;;10.10;3.83;;;13.20;99.90;;;;;;4933091;29;20516;-79
2023/04/24 02:49:56;;;;;;;7.10;4.07;;;13.10;99.90;;;;;;4936724;29;20060;-80
2023/04/24 02:52:24;;;;;;;12.40;3.90;;;13.10;99.90;;;;;;4934669;29;20085;-79
2023/04/24 02:54:51;;;;;;;10.80;3.75;;;13.20;99.90;;;;;;4927479;29;20047;-79
2023/04/24 02:57:19;;;;;;;12.98;4.43;;;13.20;99.90;;;;;;4950259;29;20051;-80
2023/04/24 02:59:46;;;;;;;5.85;3.90;;;13.10;99.90;;;;;;4927349;29;20468;-80
2023/04/24 03:02:14;;;;;;;14.27;4.45;;;13.10;99.90;;;;;;4950483;29;20139;-79
2023/04/24 03:04:44;;;;;;;7.78;3.95;;;13.10;99.90;;;;;;4933596;29;20055;-80
2023/04/24 03:07:13;;;;;;;8.75;4.28;;;13.10;99.90;;;;;;4934628;29;20043;-79
2023/04/24 03:09:41;;;;;;;8.77;4.95;;;13.20;99.90;;;;;;4935176;29;20039;-81
2023/04/24 03:12:09;;;;;;;12.30;4.47;;;13.20;99.90;;;;;;4928935;29;20477;-79
2023/04/24 03:14:37;;;;;;;10.10;4.25;;;13.30;99.90;;;;;;4917244;29;20052;-80
2023/04/24 03:17:04;;;;;;;10.48;4.07;;;13.30;99.90;;;;;;4946928;28;20043;-78
2023/04/24 03:19:32;;;;;;;11.65;4.10;;;13.40;99.90;;;;;;4931275;29;20057;-78
2023/04/24 03:22:05;;;;;;;7.88;3.88;;;13.50;99.90;;;;;;4916586;29;20058;-78
2023/04/24 03:24:36;;;;;;;13.60;4.40;;;13.60;99.90;;;;;;4950660;29;20465;-78
2023/04/24 03:27:04;;;;;;;13.85;5.13;;;13.60;99.90;;;;;;4931090;29;20056;-78
2023/04/24 03:29:53;;;;;;;7.70;4.18;;;13.70;99.90;;;;;;4951953;28;20052;-78
2023/04/24 03:32:23;;;;;;;11.25;4.70;;;13.80;99.90;;;;;;4934676;29;20063;-78
2023/04/24 03:34:51;;;;;;;8.75;4.05;;;13.90;99.90;;;;;;4931444;29;20055;-77
2023/04/24 03:37:18;;;;;;;11.38;4.82;;;13.90;99.90;;;;;;4924411;29;20114;-77
2023/04/24 03:39:56;;;;;;;11.65;4.88;;;14.00;99.90;;;;;;4934120;29;20147;-78
2023/04/24 03:42:26;;;;;;;11.93;4.30;;;14.00;99.90;;;;;;4920030;29;20110;-78
2023/04/24 03:44:56;;;;;;;10.45;4.30;;;14.10;99.90;;;;;;4919761;29;20055;-79
2023/04/24 03:47:31;;;;;;;6.63;4.25;;;14.10;99.90;;;;;;4924147;29;20137;-79
2023/04/24 03:50:02;;;;;;;14.88;4.68;;;14.10;99.90;;;;;;4932625;29;20163;-80
2023/04/24 03:52:31;;;;;;;11.70;5.00;;;14.10;99.90;;;;;;4945187;29;20582;-80
2023/04/24 03:55:00;;;;;;;11.13;4.50;;;14.10;99.70;;;;;;4919231;29;20135;-81
2023/04/24 03:57:31;;;;;;;14.15;5.78;;;14.20;99.50;;;;;;4946138;29;20130;-81
2023/04/24 04:00:10;;;;;;;14.55;5.03;;;14.30;99.00;;;;;;4918727;29;20075;-81
2023/04/24 04:02:42;;;;;;;11.85;4.75;;;14.30;99.00;;;;;;4947944;29;20046;-82
2023/04/24 04:05:11;;;;;;;14.55;4.88;;;14.30;98.70;;;;;;4934322;29;20051;-82
2023/04/24 04:07:41;;;;;;;10.50;5.00;;;14.30;98.60;;;;;;4931870;29;20043;-82
2023/04/24 04:10:11;;;;;;;11.77;4.50;;;14.40;98.60;;;;;;4949506;28;20085;-80
2023/04/24 04:12:41;;;;;;;15.23;5.00;;;14.40;98.30;;;;;;4947336;29;20106;-80
2023/04/24 04:15:10;;;;;;;11.27;5.53;;;14.40;98.10;;;;;;4945106;29;20048;-82
2023/04/24 04:17:38;;;;;;;16.35;4.95;;;14.40;98.10;;;;;;4935095;29;20051;-90
2023/04/24 04:20:10;;;;;;;18.73;5.55;;;14.40;98.10;;;;;;4914865;28;20043;-88
2023/04/24 04:22:40;;;;;;;16.70;5.88;;;14.50;97.90;;;;;;4953924;29;20054;-87
2023/04/24 04:25:13;;;;;;;12.90;4.95;;;14.60;97.70;;;;;;4946903;29;20607;-90
2023/04/24 04:27:41;;;;;;;18.55;6.43;;;14.70;97.10;;;;;;4948935;28;20137;-88
2023/04/24 04:30:12;;;;;;;12.02;5.32;;;14.70;96.80;;;;;;4921286;29;20077;-90
2023/04/24 04:32:56;;;;;;;10.45;5.05;;;14.80;96.50;;;;;;4927820;29;20063;-90
2023/04/24 04:35:31;;;;;;;13.73;5.10;;;14.80;96.40;;;;;;4939594;29;20071;-87
2023/04/24 04:38:02;;;;;;;14.90;5.28;;;14.80;96.40;;;;;;4910883;28;20098;-88
2023/04/24 04:40:58;;;;;;;19.23;5.40;;;14.80;95.90;;;;;;4929462;29;20418;-88
2023/04/24 04:46:13;;;;;;;10.93;4.95;;;15.00;95.30;;;;;;4922211;29;20228;-87
2023/04/24 04:49:01;;;;;;;11.95;5.20;;;15.00;94.90;;;;;;4920038;28;20051;-84
2023/04/24 04:51:29;;;;;;;13.75;5.03;;;15.00;94.70;;;;;;4963761;28;20051;-87
2023/04/24 04:53:57;;;;;;;14.75;4.80;;;15.00;95.30;;;;;;4938326;29;20062;-80
2023/04/24 04:56:27;;;;;;;13.23;4.60;;;15.00;94.60;;;;;;4953732;29;20119;-79
2023/04/24 04:58:56;;;;;;;17.08;5.53;;;15.10;94.40;;;;;;4951811;28;20055;-79
2023/04/24 05:01:24;;;;;;;14.10;4.72;;;15.10;94.20;;;;;;4932439;29;20047;-81
2023/04/24 05:03:51;;;;;;;9.80;4.93;;;15.10;94.40;;;;;;4935872;29;20423;-80
2023/04/24 05:06:20;;;;;;;18.83;4.95;;;15.10;94.30;;;;;;4945661;29;20076;-82
2023/04/24 05:08:48;;;;;;;9.30;4.63;;;15.10;94.50;;;;;;4920518;28;20055;-81
2023/04/24 05:11:30;;;;;;;14.05;4.65;;;15.10;94.10;;;;;;4943622;29;20050;-81
2023/04/24 05:13:59;;;;;;;12.65;5.03;;;15.10;94.30;;;;;;4934519;29;20098;-82
2023/04/24 05:16:34;;;;;;;17.75;5.22;;;15.10;94.30;;;;;;4937781;29;20101;-81
2023/04/24 05:19:06;;;;;;;12.88;5.20;;;15.20;94.40;;;;;;4925253;28;20153;-81
2023/04/24 05:21:40;;;;;;;14.32;5.07;;;15.30;93.80;;;;;;4944526;29;20043;-81
2023/04/24 05:24:09;;;;;;;18.63;5.38;;;15.30;94.30;;;;;;4930103;29;20508;-81
2023/04/24 05:26:58;;;;;;;12.02;5.05;;;15.50;93.70;;;;;;4925557;29;20117;-83
2023/04/24 05:29:34;;;;;;;18.15;5.18;;;15.70;93.00;;;;;;4935997;29;20078;-82
2023/04/24 05:32:02;;;;;;;23.33;5.70;;;16.10;92.60;;;;;;4953276;28;20054;-82
2023/04/24 05:34:31;;;;;;;14.55;5.78;;;16.60;91.60;;;;;;4920812;29;20574;-81
2023/04/24 05:36:59;;;;;;;16.15;4.90;;;17.20;90.60;;;;;;4953063;29;20392;-81
2023/04/24 05:39:27;;;;;;;16.50;5.32;;;17.80;87.30;;;;;;4937459;29;20035;-81
2023/04/24 05:41:57;;;;;;;11.85;5.38;;;18.30;83.80;;;;;;4950900;29;20051;-83
2023/04/24 05:44:27;;;;;;;14.88;5.10;;;18.80;81.70;;;;;;4920418;29;20563;-81
2023/04/24 05:46:55;;;;;;;15.80;5.90;;;19.10;79.10;;;;;;4937024;29;20051;-83
2023/04/24 05:49:23;;;;;;;16.17;5.40;;;19.60;75.60;;;;;;4952703;29;20047;-82
2023/04/24 05:51:51;;;;;;;18.70;4.75;;;20.00;73.40;;;;;;4951746;28;20065;-81
2023/04/24 05:54:19;;;;;;;18.35;4.55;;;20.20;71.70;;;;;;4936118;29;20074;-82
2023/04/24 05:56:47;;;;;;;12.93;4.90;;;20.50;70.30;;;;;;4950064;29;20059;-82
2023/04/24 05:59:21;;;;;;;15.68;4.60;;;20.70;68.70;;;;;;4935703;28;20402;-82
2023/04/24 06:01:50;;;;;;;11.30;4.60;;;21.00;67.60;;;;;;4932488;29;20094;-82
2023/04/24 06:04:21;;;;;;;11.60;4.22;;;21.40;66.60;;;;;;4920450;29;20166;-82
2023/04/24 06:06:50;;;;;;;13.13;4.35;;;21.90;64.30;;;;;;4952901;29;20141;-82
2023/04/24 06:09:19;;;;;;;12.05;4.38;;;22.10;62.40;;;;;;4931567;29;20058;-82
2023/04/24 06:11:46;;;;;;;11.02;3.58;;;22.20;61.90;;;;;;4934634;29;20085;-83
2023/04/24 06:14:15;;;;;;;18.65;4.30;;;22.50;60.30;;;;;;4953168;28;20062;-83
2023/04/24 06:17:20;;;;;;;15.45;4.95;;;22.70;59.10;;;;;;4924715;28;20051;-82
2023/04/24 06:19:49;;;;;;;15.00;4.75;;;22.70;59.10;;;;;;4934750;29;20471;-84
2023/04/24 06:22:17;;;;;;;15.15;4.07;;;23.00;58.90;;;;;;4948770;29;20057;-83
2023/04/24 06:24:45;;;;;;;15.73;3.90;;;23.40;57.20;;;;;;4948279;28;20108;-84
2023/04/24 06:27:13;;;;;;;15.77;4.10;;;23.40;57.60;;;;;;4918969;29;20039;-84
2023/04/24 06:29:43;;;;;;;15.25;4.70;;;;;;;;;;4934660;29;20054;-85
2023/04/24 06:32:11;;;;;;;12.25;4.13;;;23.80;55.40;;;;;;4939449;29;20047;-85
2023/04/24 06:34:40;;;;;;;16.90;4.30;;;24.10;55.50;;;;;;4952744;29;20055;-84
2023/04/24 06:37:07;;;;;;;15.18;4.50;;;24.30;55.40;;;;;;4917354;28;20051;-86
2023/04/24 06:39:35;;;;;;;17.63;4.55;;;24.60;54.60;;;;;;4934015;29;20081;-87
2023/04/24 06:42:03;;;;;;;18.02;4.20;;;24.90;53.20;;;;;;4952663;29;20050;-86
2023/04/24 06:44:40;;;;;;;18.50;4.40;;;24.80;53.70;;;;;;4911262;29;20451;-85
2023/04/24 06:47:09;;;;;;;13.25;4.80;;;25.10;53.00;;;;;;4951290;29;20051;-83
2023/04/24 06:49:39;;;;;;;9.95;4.20;;;25.50;52.60;;;;;;4935417;29;20055;-84
2023/04/24 06:52:07;;;;;;;12.05;4.00;;;25.50;51.60;;;;;;4935159;29;20047;-82
2023/04/24 06:54:34;;;;;;;12.77;3.97;;;25.40;52.20;;;;;;4934217;29;20047;-85
2023/04/24 06:57:03;;;;;;;15.90;4.28;;;25.60;51.20;;;;;;4929557;29;20057;-85
2023/04/24 06:59:31;;;;;;;22.90;4.18;;;25.70;51.30;;;;;;4916562;29;20051;-86
2023/04/24 07:01:59;;;;;;;17.70;4.10;;;26.10;50.70;;;;;;4934417;29;20511;-85
2023/04/24 07:04:26;;;;;;;15.63;4.05;;;26.30;50.00;;;;;;4932581;29;20504;-84
2023/04/24 07:06:57;;;;;;;10.88;3.90;;;26.40;49.90;;;;;;4940644;29;20062;-84
2023/04/24 07:09:26;;;;;;;16.48;4.15;;;26.50;49.50;;;;;;4934109;29;20611;-86
2023/04/24 07:11:56;;;;;;;16.52;3.50;;;26.50;49.60;;;;;;4932280;29;20044;-83
2023/04/24 07:14:24;;;;;;;17.73;3.88;;;26.70;49.30;;;;;;4933924;29;20054;-84
2023/04/24 07:16:51;;;;;;;17.08;3.92;;;27.00;48.60;;;;;;4912867;29;20040;-83
2023/04/24 07:19:19;;;;;;;15.88;3.80;;;27.30;48.30;;;;;;4942023;29;20460;-84
2023/04/24 07:21:46;;;;;;;12.02;3.25;;;27.30;48.00;;;;;;4916228;29;20039;-81
2023/04/24 07:24:18;;;;;;;13.00;3.72;;;27.50;47.80;;;;;;4931169;29;20066;-83
2023/04/24 07:26:46;;;;;;;26.23;3.70;;;27.90;47.40;;;;;;4935386;29;20090;-81
2023/04/24 07:29:14;;;;;;;22.17;3.30;;;28.20;46.60;;;;;;4919217;29;20531;-87
2023/04/24 07:31:42;;;;;;;37.35;4.22;;;28.20;46.40;;;;;;4932094;29;20051;-82
2023/04/24 07:34:09;;;;;;;11.85;3.28;;;28.00;45.70;;;;;;4950880;29;20043;-85
2023/04/24 07:36:39;;;;;;;18.08;3.42;;;27.70;46.50;;;;;;4950913;29;20551;-90
2023/04/24 07:39:07;;;;;;;13.70;3.80;;;27.90;46.40;;;;;;4932059;29;20043;-87
2023/04/24 07:41:36;;;;;;;16.20;3.03;;;28.10;46.00;;;;;;4918749;29;20509;-89
2023/04/24 07:44:03;;;;;;;23.60;3.58;;;28.60;44.90;;;;;;4933386;29;20051;-88
2023/04/24 07:46:31;;;;;;;30.27;4.20;;;28.50;44.40;;;;;;4961945;28;20523;-85
2023/04/24 07:49:01;;;;;;;24.35;4.28;;;28.50;44.10;;;;;;4934366;29;20534;-84
2023/04/24 07:51:28;;;;;;;17.67;3.20;;;28.10;44.40;;;;;;4934758;29;20050;-79
2023/04/24 07:53:56;;;;;;;31.33;3.83;;;27.90;44.50;;;;;;4951469;28;20051;-80
2023/04/24 07:56:24;;;;;;;31.65;3.65;;;27.80;44.40;;;;;;4947946;28;20042;-75
2023/04/24 07:58:53;;;;;;;22.42;3.45;;;27.60;44.80;;;;;;4955230;29;20531;-81
2023/04/24 08:01:20;;;;;;;31.67;3.45;;;27.80;44.80;;;;;;4938172;29;20047;-79
2023/04/24 08:03:47;;;;;;;15.75;3.00;;;27.80;44.50;;;;;;4955598;28;20047;-79
2023/04/24 08:06:15;;;;;;;17.15;2.90;;;27.80;44.60;;;;;;4955053;28;20687;-80
2023/04/24 08:08:43;;;;;;;14.88;2.88;;;28.10;44.60;;;;;;4942591;29;20058;-84
2023/04/24 08:11:10;;;;;;;27.08;3.88;;;28.30;43.70;;;;;;4953889;29;20137;-80
2023/04/24 08:13:37;;;;;;;18.13;3.90;;;28.20;43.10;;;;;;4936750;29;20047;-80
2023/04/24 08:16:06;;;;;;;41.75;4.30;;;28.00;43.60;;;;;;4953467;29;20061;-88
2023/04/24 08:18:35;;;;;;;28.63;3.40;;;28.30;42.90;;;;;;4954639;29;20487;-77
2023/04/24 08:21:03;;;;;;;29.60;3.85;;;28.40;42.50;;;;;;4954054;29;20078;-81
2023/04/24 08:23:31;;;;;;;26.20;3.45;;;28.40;42.70;;;;;;4953162;29;20563;-81
2023/04/24 08:25:58;;;;;;;18.30;3.33;;;28.70;42.50;;;;;;4950253;28;20047;-82
2023/04/24 08:28:27;;;;;;;54.45;5.65;;;29.10;42.00;;;;;;4946790;29;20142;-81
2023/04/24 08:30:55;;;;;;;78.22;6.20;;;29.00;41.60;;;;;;4947299;29;20048;-82
2023/04/24 08:33:24;;;;;;;38.03;4.32;;;28.50;41.80;;;;;;4938189;29;20048;-84
2023/04/24 08:35:52;;;;;;;41.72;3.60;;;28.50;41.90;;;;;;4937471;29;20051;-83
2023/04/24 08:38:20;;;;;;;18.30;3.05;;;28.70;42.00;;;;;;4953903;29;20066;-84
2023/04/24 08:40:49;;;;;;;27.45;3.20;;;29.00;41.30;;;;;;4954200;29;20583;-80
2023/04/24 08:43:18;;;;;;;34.30;4.10;;;29.00;41.50;;;;;;4952996;29;20047;-81
2023/04/24 08:45:47;;;;;;;28.63;4.05;;;29.40;41.60;;;;;;4951866;29;20110;-80
2023/04/24 08:48:15;;;;;;;16.08;3.70;;;29.60;40.30;;;;;;4953656;29;20043;-80
2023/04/24 08:50:44;;;;;;;25.33;4.05;;;29.60;40.80;;;;;;4953469;29;20154;-82
2023/04/24 08:53:13;;;;;;;23.30;3.75;;;29.40;41.00;;;;;;4918969;29;20051;-80
2023/04/24 08:55:42;;;;;;;22.17;3.15;;;29.90;40.50;;;;;;4953756;29;20138;-87
2023/04/24 08:58:10;;;;;;;33.83;3.60;;;30.40;39.80;;;;;;4953709;28;20051;-80
2023/04/24 09:00:39;;;;;;;22.60;3.88;;;30.40;39.80;;;;;;4957017;28;20416;-78
2023/04/24 09:03:07;;;;;;;29.73;3.92;;;30.20;39.80;;;;;;4952577;29;20070;-85
2023/04/24 09:05:35;;;;;;;22.38;4.03;;;30.20;39.60;;;;;;4956075;29;20104;-84
2023/04/24 09:08:05;;;;;;;19.50;3.92;;;30.50;39.20;;;;;;4955509;28;20105;-84
2023/04/24 09:10:41;;;;;;;26.13;3.65;;;30.80;38.50;;;;;;4954183;29;20058;-80
2023/04/24 09:13:10;;;;;;;41.25;4.45;;;30.20;38.60;;;;;;4956929;28;20047;-80
2023/04/24 09:15:38;;;;;;;30.67;3.80;;;29.90;39.30;;;;;;4960027;28;20049;-80
2023/04/24 09:18:06;;;;;;;16.05;3.38;;;30.30;39.80;;;;;;4941855;28;20043;-83
2023/04/24 09:20:35;;;;;;;16.70;3.10;;;31.30;38.10;;;;;;4928320;28;20045;-83
2023/04/24 09:23:06;;;;;;;12.80;3.53;;;31.20;38.20;;;;;;4936373;29;20050;-85
2023/04/24 09:25:36;;;;;;;15.35;2.50;;;31.00;38.20;;;;;;4954478;29;20138;-86
2023/04/24 09:29:18;;;;;;;8.32;3.08;;;30.60;38.90;;;;;;4948277;28;20059;-85
2023/04/24 09:31:46;;;;;;;24.98;4.25;;;30.70;38.80;;;;;;4887623;28;20480;-78
2023/04/24 09:34:14;;;;;;;18.83;3.90;;;30.70;38.80;;;;;;4954643;28;20078;-84
2023/04/24 09:36:44;;;;;;;24.55;3.10;;;31.10;39.10;;;;;;4944295;28;20150;-82
2023/04/24 09:39:19;;;;;;;11.93;3.10;;;31.80;38.20;;;;;;4951035;28;20456;-78
2023/04/24 09:41:51;;;;;;;16.13;3.10;;;32.00;38.60;;;;;;4936624;29;20538;-80
2023/04/24 09:44:21;;;;;;;11.05;3.20;;;32.00;37.90;;;;;;4935290;29;20047;-81
2023/04/24 09:46:51;;;;;;;12.70;3.65;;;31.90;37.70;;;;;;4950318;29;20066;-78
2023/04/24 09:49:25;;;;;;;12.60;3.50;;;31.40;38.00;;;;;;4954722;28;20061;-80
2023/04/24 09:52:04;;;;;;;8.30;2.85;;;31.30;38.30;;;;;;4951015;28;20062;-81
2023/04/24 09:54:34;;;;;;;19.83;3.65;;;31.20;38.30;;;;;;4950694;29;20067;-80
2023/04/24 09:57:10;;;;;;;20.35;4.53;;;31.40;38.80;;;;;;4953025;28;20563;-82
2023/04/24 09:59:44;;;;;;;12.70;3.28;;;31.80;38.50;;;;;;4935587;29;20595;-81
2023/04/24 10:02:20;;;;;;;10.27;2.88;;;32.30;37.80;;;;;;4951148;29;20058;-84
2023/04/24 10:04:56;;;;;;;13.02;3.05;;;32.50;37.80;;;;;;4940209;28;20445;-80
2023/04/24 10:07:27;;;;;;;13.50;2.80;;;32.70;37.30;;;;;;4954789;28;20057;-80
2023/04/24 10:09:56;;;;;;;15.98;3.65;;;32.60;37.00;;;;;;4970107;28;20421;-81
2023/04/24 10:12:25;;;;;;;8.50;3.20;;;32.10;37.40;;;;;;4969202;28;20213;-82
2023/04/24 10:14:53;;;;;;;13.90;3.70;;;32.00;38.10;;;;;;4936210;29;20047;-80
2023/04/24 10:17:22;;;;;;;10.45;3.20;;;31.70;37.70;;;;;;4952807;29;20047;-81
2023/04/24 10:19:50;;;;;;;9.45;3.13;;;31.60;37.80;;;;;;4958024;28;20052;-80
2023/04/24 10:22:19;;;;;;;11.80;3.42;;;30.50;39.10;;;;;;4953675;29;20123;-78
2023/04/24 10:24:48;;;;;;;15.32;3.70;;;30.40;39.60;;;;;;4930760;29;20105;-79
2023/04/24 10:27:18;;;;;;;15.25;3.70;;;30.00;38.80;;;;;;4929953;28;20511;-79
2023/04/24 10:29:48;;;;;;;13.77;3.83;;;28.60;39.90;;;;;;4940641;28;20423;-79
2023/04/24 10:32:16;;;;;;;28.50;4.00;;;28.00;40.90;;;;;;4941633;29;20087;-80
2023/04/24 10:34:44;;;;;;;8.20;3.72;;;27.30;42.00;;;;;;4951331;29;20133;-79
2023/04/24 10:37:13;;;;;;;10.07;3.10;;;26.80;42.40;;;;;;4934655;29;20055;-80
2023/04/24 10:39:41;;;;;;;20.42;3.78;;;26.40;43.20;;;;;;4954932;28;20113;-78
2023/04/24 10:42:17;;;;;;;10.00;3.42;;;26.00;43.30;;;;;;4950659;29;20043;-78
2023/04/24 10:44:48;;;;;;;16.05;3.67;;;26.10;44.20;;;;;;4947228;28;20054;-80
2023/04/24 10:47:16;;;;;;;11.18;3.13;;;26.80;43.30;;;;;;4966274;28;20591;-80
2023/04/24 10:49:44;;;;;;;14.10;3.60;;;27.10;42.40;;;;;;4934565;29;20047;-80
2023/04/24 10:52:16;;;;;;;9.43;2.92;;;26.50;43.10;;;;;;4950710;28;20119;-79
2023/04/24 10:54:47;;;;;;;10.48;2.92;;;25.90;43.80;;;;;;4922044;29;20056;-80
2023/04/24 10:57:31;;;;;;;7.10;2.88;;;25.50;44.40;;;;;;4946445;29;20083;-82
2023/04/24 11:00:16;;;;;;;15.38;3.55;;;25.80;44.50;;;;;;4951756;29;20180;-83
2023/04/24 11:02:52;;;;;;;15.20;3.80;;;25.40;44.40;;;;;;4950790;29;20067;-83
2023/04/24 11:05:22;;;;;;;12.35;4.28;;;25.00;45.00;;;;;;4956689;28;20043;-79
2023/04/24 11:08:16;;;;;;;13.23;3.33;;;24.70;45.60;;;;;;4958760;28;20051;-79
2023/04/24 11:11:12;;;;;;;11.55;2.97;;;24.70;45.90;;;;;;4936849;29;20273;-77
2023/04/24 11:14:07;;;;;;;16.35;3.20;;;24.60;45.70;;;;;;4949697;29;20051;-79
2023/04/24 11:16:39;;;;;;;8.15;3.50;;;24.40;46.60;;;;;;4949535;29;20058;-77
2023/04/24 11:19:09;;;;;;;8.40;3.85;;;24.50;46.60;;;;;;4933462;29;20385;-81
2023/04/24 11:21:44;;;;;;;8.93;3.50;;;25.50;45.70;;;;;;4952181;29;20047;-77
2023/04/24 11:24:50;;;;;;;9.93;3.10;;;27.30;44.20;;;;;;4947493;29;20039;-77
2023/04/24 11:27:24;;;;;;;12.15;3.20;;;29.60;41.00;;;;;;4928665;29;20125;-78
2023/04/24 11:30:03;;;;;;;13.77;3.35;;;30.30;40.10;;;;;;4962420;28;20062;-79
2023/04/24 11:32:39;;;;;;;15.23;3.17;;;30.40;39.70;;;;;;4957134;28;20705;-79
2023/04/24 11:35:12;;;;;;;4.97;2.72;;;29.30;40.60;;;;;;4956100;29;20059;-79
2023/04/24 11:37:41;;;;;;;9.20;3.72;;;27.70;41.70;;;;;;4919317;29;20463;-78
2023/04/24 11:40:11;;;;;;;15.23;3.95;;;26.50;43.20;;;;;;4955279;29;20118;-79
2023/04/24 11:42:40;;;;;;;10.40;3.05;;;25.70;44.30;;;;;;4955739;29;20114;-79
2023/04/24 11:45:12;;;;;;;8.80;3.00;;;25.10;45.10;;;;;;4944844;29;20094;-79
2023/04/24 11:47:41;;;;;;;10.73;4.15;;;24.50;45.80;;;;;;4934076;29;20047;-80
2023/04/24 11:50:12;;;;;;;15.10;3.58;;;24.10;46.70;;;;;;4960513;28;20047;-79
2023/04/24 11:52:43;;;;;;;19.58;4.13;;;23.90;47.10;;;;;;4955768;29;20078;-79
2023/04/24 11:55:26;;;;;;;15.13;3.55;;;23.80;47.20;;;;;;4955763;29;20066;-80
2023/04/24 11:57:57;;;;;;;11.48;3.38;;;23.60;47.50;;;;;;4955061;29;20085;-81
2023/04/24 12:00:28;;;;;;;7.28;3.35;;;23.40;47.90;;;;;;4968081;28;20082;-78
2023/04/24 12:03:07;;;;;;;18.08;3.72;;;23.20;48.20;;;;;;4967269;28;20759;-81
2023/04/24 12:05:35;;;;;;;8.02;3.70;;;22.90;48.50;;;;;;4919019;29;20150;-82
2023/04/24 12:08:03;;;;;;;13.25;3.75;;;22.80;49.50;;;;;;4934060;29;20074;-83
2023/04/24 12:10:33;;;;;;;11.27;3.50;;;22.70;50.60;;;;;;4954442;29;20055;-81
2023/04/24 12:13:01;;;;;;;11.48;4.00;;;22.60;51.30;;;;;;4955125;29;20066;-82
2023/04/24 12:15:30;;;;;;;25.40;4.68;;;22.40;51.70;;;;;;4954096;29;20050;-81
2023/04/24 12:17:58;;;;;;;13.18;4.18;;;22.50;52.50;;;;;;4953771;29;20050;-81
2023/04/24 12:20:28;;;;;;;10.90;3.92;;;22.50;53.00;;;;;;4942745;29;20078;-80
2023/04/24 12:22:58;;;;;;;11.77;4.43;;;22.40;53.00;;;;;;4955216;28;20063;-82
2023/04/24 12:25:28;;;;;;;11.25;3.80;;;22.40;53.10;;;;;;4957212;28;20085;-81
2023/04/24 12:28:10;;;;;;;16.05;4.13;;;22.30;53.40;;;;;;4936041;29;20048;-83
2023/04/24 12:30:44;;;;;;;14.07;4.43;;;22.30;53.50;;;;;;4945339;28;20047;-83
2023/04/24 12:33:12;;;;;;;10.93;4.00;;;22.30;53.70;;;;;;4964584;28;20056;-81
2023/04/24 12:35:41;;;;;;;16.45;4.53;;;22.20;54.00;;;;;;4960736;28;20039;-80
2023/04/24 12:38:12;;;;;;;11.00;4.20;;;22.10;53.80;;;;;;4954183;29;20047;-81
2023/04/24 12:40:42;;;;;;;13.98;4.32;;;22.00;54.10;;;;;;4952328;29;20412;-79
2023/04/24 12:43:17;;;;;;;16.45;4.57;;;21.90;54.50;;;;;;4943508;28;20480;-80
2023/04/24 12:45:46;;;;;;;15.57;4.20;;;21.80;54.30;;;;;;4934483;29;20082;-80
2023/04/24 12:48:14;;;;;;;17.75;3.88;;;21.60;54.70;;;;;;4932275;29;20043;-80
2023/04/24 12:50:42;;;;;;;15.32;4.28;;;21.50;55.10;;;;;;4936290;29;20098;-81
2023/04/24 12:53:10;;;;;;;20.58;4.65;;;21.50;55.50;;;;;;4941103;29;20101;-86
2023/04/24 12:55:40;;;;;;;11.02;4.28;;;21.40;55.40;;;;;;4927783;28;20042;-86
2023/04/24 12:58:07;;;;;;;17.23;4.35;;;21.40;55.80;;;;;;4962659;28;20066;-86